sensor_id;sensor_type;location;lat;lon;timestamp;P1;durP1;ratioP1;P2;durP2;ratioP2
57593;SDS011;43423;46.510;6.686;2023-01-28T00:00:54;20.77;;;8.88;;
57593;SDS011;43423;46.510;6.686;2023-01-28T00:03:24;20.25;;;9.43;;
57593;SDS011;43423;46.510;6.686;2023-01-28T00:05:50;20.08;;;8.15;;
57593;SDS011;43423;46.510;6.686;2023-01-28T00:08:16;19.43;;;8.23;;
57593;SDS011;43423;46.510;6.686;2023-01-28T00:10:41;21.33;;;8.35;;
57593;SDS011;43423;46.510;6.686;2023-01-28T00:13:07;20.33;;;8.98;;
57593;SDS011;43423;46.510;6.686;2023-01-28T00:15:36;25.00;;;8.95;;
57593;SDS011;43423;46.510;6.686;2023-01-28T00:18:02;22.35;;;9.05;;
57593;SDS011;43423;46.510;6.686;2023-01-28T00:20:27;23.77;;;9.05;;
57593;SDS011;43423;46.510;6.686;2023-01-28T00:22:53;23.30;;;9.57;;
57593;SDS011;43423;46.510;6.686;2023-01-28T00:25:19;23.08;;;8.60;;
57593;SDS011;43423;46.510;6.686;2023-01-28T00:27:44;20.98;;;7.32;;
57593;SDS011;43423;46.510;6.686;2023-01-28T00:30:10;21.73;;;9.70;;
57593;SDS011;43423;46.510;6.686;2023-01-28T00:32:36;17.80;;;8.73;;
57593;SDS011;43423;46.510;6.686;2023-01-28T00:35:01;19.67;;;9.07;;
57593;SDS011;43423;46.510;6.686;2023-01-28T00:37:27;19.40;;;7.88;;
57593;SDS011;43423;46.510;6.686;2023-01-28T00:39:52;22.88;;;8.90;;
57593;SDS011;43423;46.510;6.686;2023-01-28T00:42:18;22.00;;;8.65;;
57593;SDS011;43423;46.510;6.686;2023-01-28T00:44:43;29.70;;;10.32;;
57593;SDS011;43423;46.510;6.686;2023-01-28T00:47:09;28.58;;;9.82;;
57593;SDS011;43423;46.510;6.686;2023-01-28T00:49:34;24.70;;;8.57;;
57593;SDS011;43423;46.510;6.686;2023-01-28T00:52:00;22.85;;;9.00;;
57593;SDS011;43423;46.510;6.686;2023-01-28T00:54:25;27.13;;;9.90;;
57593;SDS011;43423;46.510;6.686;2023-01-28T00:56:51;21.27;;;7.97;;
57593;SDS011;43423;46.510;6.686;2023-01-28T00:59:19;27.88;;;10.15;;
57593;SDS011;43423;46.510;6.686;2023-01-28T01:01:45;22.40;;;8.80;;
57593;SDS011;43423;46.510;6.686;2023-01-28T01:04:10;24.50;;;9.45;;
57593;SDS011;43423;46.510;6.686;2023-01-28T01:06:37;23.23;;;9.50;;
57593;SDS011;43423;46.510;6.686;2023-01-28T01:09:05;20.42;;;7.88;;
57593;SDS011;43423;46.510;6.686;2023-01-28T01:11:32;20.70;;;8.57;;
57593;SDS011;43423;46.510;6.686;2023-01-28T01:13:59;24.58;;;9.15;;
57593;SDS011;43423;46.510;6.686;2023-01-28T01:16:26;22.80;;;9.20;;
57593;SDS011;43423;46.510;6.686;2023-01-28T01:18:54;28.10;;;9.80;;
57593;SDS011;43423;46.510;6.686;2023-01-28T01:21:22;22.70;;;10.93;;
57593;SDS011;43423;46.510;6.686;2023-01-28T01:23:49;22.38;;;9.30;;
57593;SDS011;43423;46.510;6.686;2023-01-28T01:26:16;23.55;;;9.20;;
57593;SDS011;43423;46.510;6.686;2023-01-28T01:28:41;16.52;;;8.18;;
57593;SDS011;43423;46.510;6.686;2023-01-28T01:31:12;22.87;;;8.77;;
57593;SDS011;43423;46.510;6.686;2023-01-28T01:33:40;23.45;;;9.40;;
57593;SDS011;43423;46.510;6.686;2023-01-28T01:36:07;21.37;;;9.27;;
57593;SDS011;43423;46.510;6.686;2023-01-28T01:38:33;26.27;;;9.77;;
57593;SDS011;43423;46.510;6.686;2023-01-28T01:41:00;21.25;;;9.45;;
57593;SDS011;43423;46.510;6.686;2023-01-28T01:48:58;23.55;;;10.10;;
57593;SDS011;43423;46.510;6.686;2023-01-28T01:51:33;23.70;;;9.18;;
57593;SDS011;43423;46.510;6.686;2023-01-28T01:53:59;22.75;;;9.52;;
57593;SDS011;43423;46.510;6.686;2023-01-28T01:56:27;24.17;;;9.60;;
57593;SDS011;43423;46.510;6.686;2023-01-28T01:58:56;25.48;;;9.73;;
57593;SDS011;43423;46.510;6.686;2023-01-28T02:01:23;27.23;;;9.68;;
57593;SDS011;43423;46.510;6.686;2023-01-28T02:04:00;26.45;;;10.57;;
57593;SDS011;43423;46.510;6.686;2023-01-28T02:06:30;25.95;;;9.75;;
57593;SDS011;43423;46.510;6.686;2023-01-28T02:08:56;20.63;;;8.35;;
57593;SDS011;43423;46.510;6.686;2023-01-28T02:11:24;22.60;;;9.48;;
57593;SDS011;43423;46.510;6.686;2023-01-28T02:13:53;27.10;;;9.90;;
57593;SDS011;43423;46.510;6.686;2023-01-28T02:16:21;26.65;;;9.75;;
57593;SDS011;43423;46.510;6.686;2023-01-28T02:18:48;23.33;;;9.50;;
57593;SDS011;43423;46.510;6.686;2023-01-28T02:21:24;28.40;;;9.45;;
57593;SDS011;43423;46.510;6.686;2023-01-28T02:34:49;23.50;;;9.95;;
57593;SDS011;43423;46.510;6.686;2023-01-28T02:37:21;21.65;;;10.50;;
57593;SDS011;43423;46.510;6.686;2023-01-28T02:39:53;21.25;;;9.00;;
57593;SDS011;43423;46.510;6.686;2023-01-28T02:42:23;27.88;;;9.65;;
57593;SDS011;43423;46.510;6.686;2023-01-28T02:44:51;24.65;;;9.77;;
57593;SDS011;43423;46.510;6.686;2023-01-28T02:47:17;27.58;;;10.60;;
57593;SDS011;43423;46.510;6.686;2023-01-28T02:50:02;25.98;;;10.85;;
57593;SDS011;43423;46.510;6.686;2023-01-28T02:55:42;25.73;;;10.82;;
57593;SDS011;43423;46.510;6.686;2023-01-28T02:58:20;24.52;;;9.77;;
57593;SDS011;43423;46.510;6.686;2023-01-28T03:01:01;26.13;;;10.47;;
57593;SDS011;43423;46.510;6.686;2023-01-28T03:03:45;26.75;;;10.15;;
57593;SDS011;43423;46.510;6.686;2023-01-28T03:06:16;26.38;;;10.20;;
57593;SDS011;43423;46.510;6.686;2023-01-28T03:09:19;23.60;;;9.40;;
57593;SDS011;43423;46.510;6.686;2023-01-28T03:12:32;23.55;;;9.90;;
57593;SDS011;43423;46.510;6.686;2023-01-28T03:15:03;24.15;;;9.63;;
57593;SDS011;43423;46.510;6.686;2023-01-28T03:17:59;29.63;;;9.98;;
57593;SDS011;43423;46.510;6.686;2023-01-28T03:20:55;23.52;;;9.65;;
57593;SDS011;43423;46.510;6.686;2023-01-28T03:23:47;25.13;;;9.10;;
57593;SDS011;43423;46.510;6.686;2023-01-28T03:26:52;25.13;;;9.38;;
57593;SDS011;43423;46.510;6.686;2023-01-28T03:29:41;26.45;;;9.68;;
57593;SDS011;43423;46.510;6.686;2023-01-28T03:32:29;26.77;;;10.47;;
57593;SDS011;43423;46.510;6.686;2023-01-28T03:35:14;25.87;;;9.13;;
57593;SDS011;43423;46.510;6.686;2023-01-28T03:38:01;24.90;;;10.70;;
57593;SDS011;43423;46.510;6.686;2023-01-28T03:40:58;27.30;;;10.40;;
57593;SDS011;43423;46.510;6.686;2023-01-28T03:43:30;28.13;;;10.57;;
57593;SDS011;43423;46.510;6.686;2023-01-28T03:45:56;21.77;;;9.23;;
57593;SDS011;43423;46.510;6.686;2023-01-28T03:48:22;24.08;;;9.73;;
57593;SDS011;43423;46.510;6.686;2023-01-28T03:50:50;27.53;;;9.50;;
57593;SDS011;43423;46.510;6.686;2023-01-28T03:53:17;25.13;;;11.07;;
57593;SDS011;43423;46.510;6.686;2023-01-28T03:55:44;29.80;;;10.83;;
57593;SDS011;43423;46.510;6.686;2023-01-28T03:58:11;27.40;;;10.93;;
57593;SDS011;43423;46.510;6.686;2023-01-28T04:00:37;32.85;;;11.18;;
57593;SDS011;43423;46.510;6.686;2023-01-28T04:03:11;29.17;;;10.50;;
57593;SDS011;43423;46.510;6.686;2023-01-28T04:05:42;25.17;;;10.00;;
57593;SDS011;43423;46.510;6.686;2023-01-28T04:08:09;26.63;;;10.40;;
57593;SDS011;43423;46.510;6.686;2023-01-28T04:10:34;31.30;;;11.10;;
57593;SDS011;43423;46.510;6.686;2023-01-28T04:13:00;30.65;;;11.18;;
57593;SDS011;43423;46.510;6.686;2023-01-28T04:15:25;25.23;;;10.68;;
57593;SDS011;43423;46.510;6.686;2023-01-28T04:17:51;31.52;;;10.77;;
57593;SDS011;43423;46.510;6.686;2023-01-28T04:20:16;27.27;;;10.23;;
57593;SDS011;43423;46.510;6.686;2023-01-28T04:22:42;26.67;;;9.43;;
57593;SDS011;43423;46.510;6.686;2023-01-28T04:25:08;29.52;;;11.32;;
57593;SDS011;43423;46.510;6.686;2023-01-28T04:27:34;29.40;;;10.55;;
57593;SDS011;43423;46.510;6.686;2023-01-28T04:29:59;26.30;;;10.13;;
57593;SDS011;43423;46.510;6.686;2023-01-28T04:32:25;26.52;;;10.75;;
57593;SDS011;43423;46.510;6.686;2023-01-28T04:34:50;24.67;;;10.02;;
57593;SDS011;43423;46.510;6.686;2023-01-28T04:37:16;30.23;;;10.57;;
57593;SDS011;43423;46.510;6.686;2023-01-28T04:39:42;25.73;;;10.75;;
57593;SDS011;43423;46.510;6.686;2023-01-28T04:42:08;27.00;;;10.30;;
57593;SDS011;43423;46.510;6.686;2023-01-28T04:44:33;26.70;;;10.50;;
57593;SDS011;43423;46.510;6.686;2023-01-28T04:46:59;26.38;;;9.65;;
57593;SDS011;43423;46.510;6.686;2023-01-28T04:49:24;27.77;;;10.95;;
57593;SDS011;43423;46.510;6.686;2023-01-28T04:51:50;24.98;;;9.85;;
57593;SDS011;43423;46.510;6.686;2023-01-28T04:54:15;25.13;;;10.52;;
57593;SDS011;43423;46.510;6.686;2023-01-28T04:56:41;22.17;;;9.63;;
57593;SDS011;43423;46.510;6.686;2023-01-28T04:59:06;25.38;;;10.88;;
57593;SDS011;43423;46.510;6.686;2023-01-28T05:01:33;24.63;;;10.05;;
57593;SDS011;43423;46.510;6.686;2023-01-28T05:03:58;28.95;;;11.35;;
57593;SDS011;43423;46.510;6.686;2023-01-28T05:06:32;28.50;;;11.57;;
57593;SDS011;43423;46.510;6.686;2023-01-28T05:08:58;21.63;;;9.90;;
57593;SDS011;43423;46.510;6.686;2023-01-28T05:11:23;27.77;;;11.77;;
57593;SDS011;43423;46.510;6.686;2023-01-28T05:13:49;23.45;;;9.55;;
57593;SDS011;43423;46.510;6.686;2023-01-28T05:16:15;28.75;;;10.20;;
57593;SDS011;43423;46.510;6.686;2023-01-28T05:18:41;24.77;;;9.30;;
57593;SDS011;43423;46.510;6.686;2023-01-28T05:21:07;28.05;;;10.23;;
57593;SDS011;43423;46.510;6.686;2023-01-28T05:23:33;26.23;;;11.43;;
57593;SDS011;43423;46.510;6.686;2023-01-28T05:25:58;25.92;;;10.18;;
57593;SDS011;43423;46.510;6.686;2023-01-28T05:28:24;30.25;;;10.65;;
57593;SDS011;43423;46.510;6.686;2023-01-28T05:30:50;27.77;;;10.30;;
57593;SDS011;43423;46.510;6.686;2023-01-28T05:33:15;31.13;;;10.65;;
57593;SDS011;43423;46.510;6.686;2023-01-28T05:35:41;27.27;;;10.63;;
57593;SDS011;43423;46.510;6.686;2023-01-28T05:38:07;25.35;;;10.15;;
57593;SDS011;43423;46.510;6.686;2023-01-28T05:40:33;30.25;;;10.75;;
57593;SDS011;43423;46.510;6.686;2023-01-28T05:42:58;25.17;;;11.25;;
57593;SDS011;43423;46.510;6.686;2023-01-28T05:45:24;32.55;;;10.50;;
57593;SDS011;43423;46.510;6.686;2023-01-28T05:47:50;28.83;;;10.80;;
57593;SDS011;43423;46.510;6.686;2023-01-28T05:50:15;26.25;;;10.43;;
57593;SDS011;43423;46.510;6.686;2023-01-28T05:52:41;34.70;;;12.10;;
57593;SDS011;43423;46.510;6.686;2023-01-28T05:55:07;27.63;;;10.45;;
57593;SDS011;43423;46.510;6.686;2023-01-28T05:57:33;26.60;;;10.98;;
57593;SDS011;43423;46.510;6.686;2023-01-28T05:59:59;27.23;;;10.90;;
57593;SDS011;43423;46.510;6.686;2023-01-28T06:02:24;31.63;;;12.05;;
57593;SDS011;43423;46.510;6.686;2023-01-28T06:04:50;27.58;;;11.18;;
57593;SDS011;43423;46.510;6.686;2023-01-28T06:07:15;28.35;;;9.75;;
57593;SDS011;43423;46.510;6.686;2023-01-28T06:09:45;32.95;;;11.05;;
57593;SDS011;43423;46.510;6.686;2023-01-28T06:12:11;35.55;;;12.45;;
57593;SDS011;43423;46.510;6.686;2023-01-28T06:14:37;28.73;;;10.70;;
57593;SDS011;43423;46.510;6.686;2023-01-28T06:17:03;31.08;;;11.25;;
57593;SDS011;43423;46.510;6.686;2023-01-28T06:19:29;32.75;;;11.32;;
57593;SDS011;43423;46.510;6.686;2023-01-28T06:21:54;28.20;;;10.95;;
57593;SDS011;43423;46.510;6.686;2023-01-28T06:24:20;33.92;;;12.77;;
57593;SDS011;43423;46.510;6.686;2023-01-28T06:26:45;36.75;;;12.13;;
57593;SDS011;43423;46.510;6.686;2023-01-28T06:29:11;34.67;;;11.60;;
57593;SDS011;43423;46.510;6.686;2023-01-28T06:31:36;32.38;;;10.60;;
57593;SDS011;43423;46.510;6.686;2023-01-28T06:34:02;35.67;;;12.13;;
57593;SDS011;43423;46.510;6.686;2023-01-28T06:36:27;30.83;;;10.57;;
57593;SDS011;43423;46.510;6.686;2023-01-28T06:38:53;32.65;;;11.07;;
57593;SDS011;43423;46.510;6.686;2023-01-28T06:41:18;27.38;;;10.43;;
57593;SDS011;43423;46.510;6.686;2023-01-28T06:43:44;30.85;;;10.73;;
57593;SDS011;43423;46.510;6.686;2023-01-28T06:46:10;34.70;;;11.63;;
57593;SDS011;43423;46.510;6.686;2023-01-28T06:48:35;31.00;;;12.25;;
57593;SDS011;43423;46.510;6.686;2023-01-28T06:51:00;30.48;;;11.20;;
57593;SDS011;43423;46.510;6.686;2023-01-28T06:53:26;33.92;;;10.77;;
57593;SDS011;43423;46.510;6.686;2023-01-28T06:55:51;28.17;;;11.25;;
57593;SDS011;43423;46.510;6.686;2023-01-28T06:58:17;25.35;;;10.88;;
57593;SDS011;43423;46.510;6.686;2023-01-28T07:00:43;30.65;;;11.18;;
57593;SDS011;43423;46.510;6.686;2023-01-28T07:03:08;28.75;;;10.57;;
57593;SDS011;43423;46.510;6.686;2023-01-28T07:05:34;32.33;;;11.10;;
57593;SDS011;43423;46.510;6.686;2023-01-28T07:07:59;32.55;;;11.98;;
57593;SDS011;43423;46.510;6.686;2023-01-28T07:10:26;34.03;;;11.35;;
57593;SDS011;43423;46.510;6.686;2023-01-28T07:12:52;27.13;;;11.45;;
57593;SDS011;43423;46.510;6.686;2023-01-28T07:15:17;31.80;;;12.20;;
57593;SDS011;43423;46.510;6.686;2023-01-28T07:17:43;33.90;;;10.57;;
57593;SDS011;43423;46.510;6.686;2023-01-28T07:20:10;31.02;;;11.63;;
57593;SDS011;43423;46.510;6.686;2023-01-28T07:22:39;27.20;;;10.13;;
57593;SDS011;43423;46.510;6.686;2023-01-28T07:25:06;27.70;;;11.63;;
57593;SDS011;43423;46.510;6.686;2023-01-28T07:27:32;38.67;;;12.30;;
57593;SDS011;43423;46.510;6.686;2023-01-28T07:29:58;32.63;;;11.68;;
57593;SDS011;43423;46.510;6.686;2023-01-28T07:32:24;36.13;;;11.65;;
57593;SDS011;43423;46.510;6.686;2023-01-28T07:34:51;28.55;;;9.35;;
57593;SDS011;43423;46.510;6.686;2023-01-28T07:37:18;35.15;;;11.48;;
57593;SDS011;43423;46.510;6.686;2023-01-28T07:39:43;34.13;;;13.05;;
57593;SDS011;43423;46.510;6.686;2023-01-28T07:42:09;33.15;;;11.63;;
57593;SDS011;43423;46.510;6.686;2023-01-28T07:44:35;33.10;;;10.85;;
57593;SDS011;43423;46.510;6.686;2023-01-28T07:47:02;28.40;;;11.07;;
57593;SDS011;43423;46.510;6.686;2023-01-28T07:49:28;38.33;;;13.38;;
57593;SDS011;43423;46.510;6.686;2023-01-28T07:51:53;36.95;;;12.75;;
57593;SDS011;43423;46.510;6.686;2023-01-28T07:54:19;35.30;;;11.80;;
57593;SDS011;43423;46.510;6.686;2023-01-28T07:56:44;31.30;;;12.45;;
57593;SDS011;43423;46.510;6.686;2023-01-28T07:59:10;37.63;;;12.07;;
57593;SDS011;43423;46.510;6.686;2023-01-28T08:01:36;34.97;;;12.32;;
57593;SDS011;43423;46.510;6.686;2023-01-28T08:04:01;33.45;;;12.63;;
57593;SDS011;43423;46.510;6.686;2023-01-28T08:06:27;34.90;;;11.38;;
57593;SDS011;43423;46.510;6.686;2023-01-28T08:08:53;30.63;;;11.60;;
57593;SDS011;43423;46.510;6.686;2023-01-28T08:11:19;36.00;;;13.13;;
57593;SDS011;43423;46.510;6.686;2023-01-28T08:13:45;27.15;;;11.38;;
57593;SDS011;43423;46.510;6.686;2023-01-28T08:16:11;34.33;;;10.73;;
57593;SDS011;43423;46.510;6.686;2023-01-28T08:18:36;26.58;;;11.23;;
57593;SDS011;43423;46.510;6.686;2023-01-28T08:21:02;29.50;;;11.48;;
57593;SDS011;43423;46.510;6.686;2023-01-28T08:23:29;26.80;;;9.88;;
57593;SDS011;43423;46.510;6.686;2023-01-28T08:25:57;28.52;;;10.02;;
57593;SDS011;43423;46.510;6.686;2023-01-28T08:28:23;28.08;;;10.98;;
57593;SDS011;43423;46.510;6.686;2023-01-28T08:30:49;28.70;;;11.00;;
57593;SDS011;43423;46.510;6.686;2023-01-28T08:33:14;29.52;;;10.18;;
57593;SDS011;43423;46.510;6.686;2023-01-28T08:35:41;31.35;;;10.82;;
57593;SDS011;43423;46.510;6.686;2023-01-28T08:38:07;31.88;;;11.43;;
57593;SDS011;43423;46.510;6.686;2023-01-28T08:40:33;35.22;;;11.82;;
57593;SDS011;43423;46.510;6.686;2023-01-28T08:42:59;26.58;;;10.13;;
57593;SDS011;43423;46.510;6.686;2023-01-28T08:45:26;28.23;;;11.55;;
57593;SDS011;43423;46.510;6.686;2023-01-28T08:47:53;28.02;;;10.90;;
57593;SDS011;43423;46.510;6.686;2023-01-28T08:50:24;28.30;;;10.77;;
57593;SDS011;43423;46.510;6.686;2023-01-28T08:52:55;30.48;;;11.43;;
57593;SDS011;43423;46.510;6.686;2023-01-28T08:55:22;26.88;;;10.63;;
57593;SDS011;43423;46.510;6.686;2023-01-28T08:57:48;34.58;;;13.20;;
57593;SDS011;43423;46.510;6.686;2023-01-28T09:00:14;26.70;;;11.07;;
57593;SDS011;43423;46.510;6.686;2023-01-28T09:02:41;28.25;;;11.30;;
57593;SDS011;43423;46.510;6.686;2023-01-28T09:05:07;28.98;;;11.40;;
57593;SDS011;43423;46.510;6.686;2023-01-28T09:07:34;29.52;;;11.90;;
57593;SDS011;43423;46.510;6.686;2023-01-28T09:10:00;32.42;;;11.82;;
57593;SDS011;43423;46.510;6.686;2023-01-28T09:12:25;33.80;;;12.45;;
57593;SDS011;43423;46.510;6.686;2023-01-28T09:14:51;31.98;;;11.80;;
57593;SDS011;43423;46.510;6.686;2023-01-28T09:17:17;34.67;;;12.35;;
57593;SDS011;43423;46.510;6.686;2023-01-28T09:19:44;32.22;;;10.57;;
57593;SDS011;43423;46.510;6.686;2023-01-28T09:22:09;30.15;;;11.60;;
57593;SDS011;43423;46.510;6.686;2023-01-28T09:24:35;34.83;;;11.70;;
57593;SDS011;43423;46.510;6.686;2023-01-28T09:27:00;30.48;;;11.68;;
57593;SDS011;43423;46.510;6.686;2023-01-28T09:29:26;32.28;;;12.60;;
57593;SDS011;43423;46.510;6.686;2023-01-28T09:31:51;32.90;;;12.73;;
57593;SDS011;43423;46.510;6.686;2023-01-28T09:34:17;29.05;;;11.25;;
57593;SDS011;43423;46.510;6.686;2023-01-28T09:36:42;27.38;;;10.73;;
57593;SDS011;43423;46.510;6.686;2023-01-28T09:39:08;24.55;;;10.93;;
57593;SDS011;43423;46.510;6.686;2023-01-28T09:41:44;30.58;;;11.50;;
57593;SDS011;43423;46.510;6.686;2023-01-28T09:46:51;29.67;;;11.68;;
57593;SDS011;43423;46.510;6.686;2023-01-28T09:49:19;27.85;;;10.65;;
57593;SDS011;43423;46.510;6.686;2023-01-28T09:51:54;30.98;;;10.65;;
57593;SDS011;43423;46.510;6.686;2023-01-28T09:57:06;28.00;;;10.73;;
57593;SDS011;43423;46.510;6.686;2023-01-28T09:59:37;26.98;;;10.65;;
57593;SDS011;43423;46.510;6.686;2023-01-28T10:10:15;28.23;;;10.63;;
57593;SDS011;43423;46.510;6.686;2023-01-28T10:15:49;30.10;;;9.82;;
57593;SDS011;43423;46.510;6.686;2023-01-28T10:18:35;26.77;;;10.35;;
57593;SDS011;43423;46.510;6.686;2023-01-28T10:21:35;24.23;;;10.52;;
57593;SDS011;43423;46.510;6.686;2023-01-28T10:24:10;28.08;;;11.48;;
57593;SDS011;43423;46.510;6.686;2023-01-28T10:26:43;25.92;;;11.88;;
57593;SDS011;43423;46.510;6.686;2023-01-28T10:29:13;23.17;;;10.75;;
57593;SDS011;43423;46.510;6.686;2023-01-28T10:31:46;26.40;;;10.95;;
57593;SDS011;43423;46.510;6.686;2023-01-28T10:34:17;27.42;;;9.90;;
57593;SDS011;43423;46.510;6.686;2023-01-28T10:36:43;24.70;;;10.85;;
57593;SDS011;43423;46.510;6.686;2023-01-28T10:39:10;25.10;;;10.02;;
57593;SDS011;43423;46.510;6.686;2023-01-28T10:41:39;24.88;;;10.23;;
57593;SDS011;43423;46.510;6.686;2023-01-28T10:44:05;25.77;;;10.40;;
57593;SDS011;43423;46.510;6.686;2023-01-28T10:46:33;26.50;;;10.57;;
57593;SDS011;43423;46.510;6.686;2023-01-28T10:49:17;24.67;;;10.52;;
57593;SDS011;43423;46.510;6.686;2023-01-28T10:51:51;26.70;;;11.23;;
57593;SDS011;43423;46.510;6.686;2023-01-28T10:54:21;28.85;;;11.38;;
57593;SDS011;43423;46.510;6.686;2023-01-28T10:56:52;22.83;;;10.43;;
57593;SDS011;43423;46.510;6.686;2023-01-28T10:59:28;26.13;;;11.20;;
57593;SDS011;43423;46.510;6.686;2023-01-28T11:01:55;21.85;;;10.88;;
57593;SDS011;43423;46.510;6.686;2023-01-28T11:06:55;24.27;;;10.80;;
57593;SDS011;43423;46.510;6.686;2023-01-28T11:09:26;27.58;;;11.15;;
57593;SDS011;43423;46.510;6.686;2023-01-28T11:11:53;26.08;;;10.70;;
57593;SDS011;43423;46.510;6.686;2023-01-28T11:14:19;26.20;;;12.07;;
57593;SDS011;43423;46.510;6.686;2023-01-28T11:16:46;28.02;;;11.25;;
57593;SDS011;43423;46.510;6.686;2023-01-28T11:19:13;25.42;;;11.02;;
57593;SDS011;43423;46.510;6.686;2023-01-28T11:21:39;22.90;;;11.05;;
57593;SDS011;43423;46.510;6.686;2023-01-28T11:24:13;25.27;;;11.10;;
57593;SDS011;43423;46.510;6.686;2023-01-28T11:26:47;24.40;;;10.57;;
57593;SDS011;43423;46.510;6.686;2023-01-28T11:29:34;26.88;;;11.32;;
57593;SDS011;43423;46.510;6.686;2023-01-28T11:32:04;30.20;;;10.80;;
57593;SDS011;43423;46.510;6.686;2023-01-28T11:34:32;23.75;;;10.60;;
57593;SDS011;43423;46.510;6.686;2023-01-28T11:37:12;29.55;;;11.85;;
57593;SDS011;43423;46.510;6.686;2023-01-28T11:39:42;26.05;;;10.65;;
57593;SDS011;43423;46.510;6.686;2023-01-28T11:42:14;22.33;;;10.25;;
57593;SDS011;43423;46.510;6.686;2023-01-28T11:44:42;25.58;;;11.48;;
57593;SDS011;43423;46.510;6.686;2023-01-28T11:47:12;27.02;;;10.05;;
57593;SDS011;43423;46.510;6.686;2023-01-28T12:00:59;23.17;;;10.77;;
57593;SDS011;43423;46.510;6.686;2023-01-28T12:11:42;23.13;;;10.50;;
57593;SDS011;43423;46.510;6.686;2023-01-28T12:14:40;22.88;;;9.82;;
57593;SDS011;43423;46.510;6.686;2023-01-28T12:17:13;23.17;;;10.35;;
57593;SDS011;43423;46.510;6.686;2023-01-28T12:22:15;27.77;;;12.15;;
57593;SDS011;43423;46.510;6.686;2023-01-28T12:27:31;23.17;;;10.10;;
57593;SDS011;43423;46.510;6.686;2023-01-28T12:40:39;22.90;;;10.13;;
57593;SDS011;43423;46.510;6.686;2023-01-28T12:45:48;22.60;;;10.15;;
57593;SDS011;43423;46.510;6.686;2023-01-28T12:48:21;24.98;;;10.23;;
57593;SDS011;43423;46.510;6.686;2023-01-28T12:50:50;19.60;;;9.52;;
57593;SDS011;43423;46.510;6.686;2023-01-28T12:58:57;21.27;;;9.77;;
57593;SDS011;43423;46.510;6.686;2023-01-28T13:01:34;23.65;;;10.07;;
57593;SDS011;43423;46.510;6.686;2023-01-28T13:04:08;22.02;;;9.68;;
57593;SDS011;43423;46.510;6.686;2023-01-28T13:09:18;23.75;;;9.77;;
57593;SDS011;43423;46.510;6.686;2023-01-28T13:11:47;20.20;;;9.00;;
57593;SDS011;43423;46.510;6.686;2023-01-28T13:14:15;21.38;;;9.88;;
57593;SDS011;43423;46.510;6.686;2023-01-28T13:16:42;22.52;;;10.85;;
57593;SDS011;43423;46.510;6.686;2023-01-28T13:21:42;22.80;;;9.70;;
57593;SDS011;43423;46.510;6.686;2023-01-28T13:26:44;24.75;;;10.32;;
57593;SDS011;43423;46.510;6.686;2023-01-28T13:31:38;24.35;;;10.18;;
57593;SDS011;43423;46.510;6.686;2023-01-28T13:34:30;23.83;;;10.38;;
57593;SDS011;43423;46.510;6.686;2023-01-28T13:37:06;20.65;;;9.25;;
57593;SDS011;43423;46.510;6.686;2023-01-28T13:39:45;22.08;;;9.30;;
57593;SDS011;43423;46.510;6.686;2023-01-28T13:42:27;18.40;;;8.73;;
57593;SDS011;43423;46.510;6.686;2023-01-28T13:44:54;21.95;;;8.90;;
57593;SDS011;43423;46.510;6.686;2023-01-28T13:47:31;19.83;;;8.80;;
57593;SDS011;43423;46.510;6.686;2023-01-28T13:50:10;20.30;;;8.27;;
57593;SDS011;43423;46.510;6.686;2023-01-28T13:55:18;22.35;;;9.90;;
57593;SDS011;43423;46.510;6.686;2023-01-28T14:03:19;24.02;;;10.43;;
57593;SDS011;43423;46.510;6.686;2023-01-28T14:09:05;17.30;;;8.32;;
57593;SDS011;43423;46.510;6.686;2023-01-28T14:12:16;22.00;;;9.55;;
57593;SDS011;43423;46.510;6.686;2023-01-28T14:17:49;22.25;;;8.52;;
57593;SDS011;43423;46.510;6.686;2023-01-28T14:20:20;21.40;;;9.15;;
57593;SDS011;43423;46.510;6.686;2023-01-28T14:22:50;16.55;;;8.02;;
57593;SDS011;43423;46.510;6.686;2023-01-28T14:25:32;18.10;;;8.23;;
57593;SDS011;43423;46.510;6.686;2023-01-28T14:28:09;18.92;;;9.55;;
57593;SDS011;43423;46.510;6.686;2023-01-28T14:30:52;17.97;;;8.63;;
57593;SDS011;43423;46.510;6.686;2023-01-28T14:33:20;18.30;;;8.45;;
57593;SDS011;43423;46.510;6.686;2023-01-28T14:35:47;23.02;;;10.07;;
57593;SDS011;43423;46.510;6.686;2023-01-28T14:38:18;20.13;;;8.80;;
57593;SDS011;43423;46.510;6.686;2023-01-28T14:40:50;17.40;;;8.68;;
57593;SDS011;43423;46.510;6.686;2023-01-28T14:43:19;20.60;;;8.57;;
57593;SDS011;43423;46.510;6.686;2023-01-28T14:53:28;17.45;;;8.20;;
57593;SDS011;43423;46.510;6.686;2023-01-28T14:56:03;17.58;;;8.13;;
57593;SDS011;43423;46.510;6.686;2023-01-28T14:58:38;20.63;;;9.02;;
57593;SDS011;43423;46.510;6.686;2023-01-28T15:01:18;19.73;;;9.02;;
57593;SDS011;43423;46.510;6.686;2023-01-28T15:03:46;19.60;;;8.60;;
57593;SDS011;43423;46.510;6.686;2023-01-28T15:06:12;18.13;;;8.57;;
57593;SDS011;43423;46.510;6.686;2023-01-28T15:08:40;18.33;;;8.93;;
57593;SDS011;43423;46.510;6.686;2023-01-28T15:11:10;20.05;;;8.02;;
57593;SDS011;43423;46.510;6.686;2023-01-28T15:13:45;19.65;;;8.95;;
57593;SDS011;43423;46.510;6.686;2023-01-28T15:16:30;19.23;;;8.63;;
57593;SDS011;43423;46.510;6.686;2023-01-28T15:18:57;18.73;;;8.18;;
57593;SDS011;43423;46.510;6.686;2023-01-28T15:21:25;19.23;;;8.43;;
57593;SDS011;43423;46.510;6.686;2023-01-28T15:23:59;18.02;;;8.13;;
57593;SDS011;43423;46.510;6.686;2023-01-28T15:26:26;19.00;;;8.32;;
57593;SDS011;43423;46.510;6.686;2023-01-28T15:28:55;20.92;;;9.32;;
57593;SDS011;43423;46.510;6.686;2023-01-28T15:31:23;18.95;;;8.43;;
57593;SDS011;43423;46.510;6.686;2023-01-28T15:33:55;21.10;;;8.07;;
57593;SDS011;43423;46.510;6.686;2023-01-28T15:36:22;17.98;;;8.13;;
57593;SDS011;43423;46.510;6.686;2023-01-28T15:38:47;20.17;;;9.48;;
57593;SDS011;43423;46.510;6.686;2023-01-28T15:41:13;18.60;;;9.05;;
57593;SDS011;43423;46.510;6.686;2023-01-28T15:43:44;18.67;;;8.32;;
57593;SDS011;43423;46.510;6.686;2023-01-28T15:46:12;21.23;;;9.52;;
57593;SDS011;43423;46.510;6.686;2023-01-28T15:48:40;19.00;;;8.45;;
57593;SDS011;43423;46.510;6.686;2023-01-28T15:51:15;21.00;;;8.10;;
57593;SDS011;43423;46.510;6.686;2023-01-28T15:53:44;18.00;;;7.35;;
57593;SDS011;43423;46.510;6.686;2023-01-28T15:56:14;15.82;;;8.13;;
57593;SDS011;43423;46.510;6.686;2023-01-28T15:58:40;20.30;;;8.82;;
57593;SDS011;43423;46.510;6.686;2023-01-28T16:03:32;20.33;;;8.55;;
57593;SDS011;43423;46.510;6.686;2023-01-28T16:06:01;18.00;;;8.88;;
57593;SDS011;43423;46.510;6.686;2023-01-28T16:11:01;21.98;;;9.15;;
57593;SDS011;43423;46.510;6.686;2023-01-28T16:13:27;20.02;;;8.38;;
57593;SDS011;43423;46.510;6.686;2023-01-28T16:15:57;17.85;;;8.43;;
57593;SDS011;43423;46.510;6.686;2023-01-28T16:18:43;19.60;;;8.95;;
57593;SDS011;43423;46.510;6.686;2023-01-28T16:21:18;22.13;;;9.75;;
57593;SDS011;43423;46.510;6.686;2023-01-28T16:23:49;20.17;;;7.85;;
57593;SDS011;43423;46.510;6.686;2023-01-28T16:26:23;22.63;;;8.68;;
57593;SDS011;43423;46.510;6.686;2023-01-28T16:28:49;19.85;;;8.10;;
57593;SDS011;43423;46.510;6.686;2023-01-28T16:31:17;16.55;;;7.82;;
57593;SDS011;43423;46.510;6.686;2023-01-28T16:33:42;20.58;;;8.18;;
57593;SDS011;43423;46.510;6.686;2023-01-28T16:36:09;21.63;;;9.13;;
57593;SDS011;43423;46.510;6.686;2023-01-28T16:38:36;19.50;;;9.27;;